Ambler, Alaska
Current Conditions -  °F | °C
As of 4:36 AM on Wednesday 22 Oct 2014 (Local Time) from PAFM Reporting Station
Overcast Overcast  
Wind Chill: 21°   Ceiling: 6000
Heat Index: 21°   Visibility: 10mi
Dew Point: 14°   Wind: 3mph
Humidity: 74%   Direction: 290°WNW
Pressure: 29.72"   Gusts: NA
Location:  67.09°N, 157.85°W
Report Text: PAFM 221236Z AUTO 29003KT 10SM OVC060 M06/M10 A2972 RMK AO1
Loading
Personal Weather Stations






























Interactive Weather Map New forecast layout! Learn more

10-Day Weather Forecast

Advertisements
Track Severe Weather on mobile